WetterOnline ( https://www.wetteronline.de )

Wetter aktuell Insel Mainau

Aktuelles Wetter: Konstanz (397m)

6-stündlich | Neueste Meldungen
Ortszeit Temperatur Wetter
Di, 16.07. 14:00 23.8° C wolkig
Di, 16.07. 8:00 19.1° C leichter Regen
Di, 16.07. 2:00 18.5° C bedeckt
Mo, 15.07. 20:00 23.7° C leicht bewölkt
Mo, 15.07. 14:00 25.7° C bedeckt
Mo, 15.07. 8:00 18.2° C bedeckt
Mo, 15.07. 2:00 15.5° C wolkig
So, 14.07. 20:00 22.9° C bedeckt
Ortszeit Temperatur Wetter
Di, 16.07. 14:00 23.8° C wolkig
Di, 16.07. 13:50 23.8° C wolkig
Di, 16.07. 13:40 23.1° C bedeckt
Di, 16.07. 13:30 23.0° C wolkig
Di, 16.07. 13:20 23.0° C wolkig
Di, 16.07. 13:10 23.3° C wolkig
Di, 16.07. 13:00 22.9° C leicht bewölkt
Di, 16.07. 12:30 21.6° C bedeckt
Di, 16.07. 12:00 21.8° C bewölkt
Di, 16.07. 11:30 22.3° C bewölkt
Di, 16.07. 11:00 21.6° C wolkig
Ortszeit Relative Feuchte Sichtweite
Di, 16.07. 14:00 66% 65 km
Di, 16.07. 8:00 89% 60 km
Di, 16.07. 2:00 96% 28 km
Mo, 15.07. 20:00 76% 45 km
Mo, 15.07. 14:00 60% 45 km
Mo, 15.07. 8:00 83% 50 km
Mo, 15.07. 2:00 93% 50 km
So, 14.07. 20:00 53% 65 km
Ortszeit Relative Feuchte Sichtweite
Di, 16.07. 14:00 66% 65 km
Di, 16.07. 13:50 66% -
Di, 16.07. 13:40 66% -
Di, 16.07. 13:30 67% 45 km
Di, 16.07. 13:20 67% -
Di, 16.07. 13:10 65% -
Di, 16.07. 13:00 68% 40 km
Di, 16.07. 12:30 73% 50 km
Di, 16.07. 12:00 71% 55 km
Di, 16.07. 11:30 69% 55 km
Di, 16.07. 11:00 78% 60 km
Ortszeit Niederschlagsmenge Niederschlagsart
Di, 16.07. 14:00 0.1 l/m2 in 6 Std. Regen
Di, 16.07. 8:00 10 l/m2 in 12 Std. Regen
Di, 16.07. 2:00 4 l/m2 in 6 Std. Regen
Mo, 15.07. 20:00 0.1 l/m2 in 12 Std. -
Mo, 15.07. 14:00 0.1 l/m2 in 6 Std. Regen
Mo, 15.07. 8:00 0.0 l/m2 in 12 Std. -
Mo, 15.07. 2:00 0.0 l/m2 in 6 Std. -
So, 14.07. 20:00 0.0 l/m2 in 12 Std. -
Ortszeit Niederschlagsmenge Niederschlagsart
Di, 16.07. 14:00 0.0 l/m2 in 1 Std. Regen
Di, 16.07. 13:50 keine Meldung -
Di, 16.07. 13:40 keine Meldung -
Di, 16.07. 13:30 0.0 l/m2 in 30 Min -
Di, 16.07. 13:20 keine Meldung -
Di, 16.07. 13:10 keine Meldung -
Di, 16.07. 13:00 <0.05 l/m2 in 1 Std. Regen
Di, 16.07. 12:30 <0.05 l/m2 in 30 Min Schneeregen
Di, 16.07. 12:00 0.0 l/m2 in 1 Std. -
Di, 16.07. 11:30 0.0 l/m2 in 30 Min -
Di, 16.07. 11:00 0.0 l/m2 in 1 Std. Regen
Ortszeit Stärke Spitze Richtung
km/h Bft. km/h Grad Sektor
Di, 16.07. 14:00 13 3 19 280° W
Di, 16.07. 8:00 7 2 14 220° SW
Di, 16.07. 2:00 4 1 43 50° NO
Mo, 15.07. 20:00 4 1 14 30° NO
Mo, 15.07. 14:00 4 1 14 280° W
Mo, 15.07. 8:00 0 0 7 - -
Mo, 15.07. 2:00 6 1 9 330° NW
So, 14.07. 20:00 7 2 18 110° O
Ortszeit Stärke Spitze Richtung
km/h Bft. km/h Grad Sektor
Di, 16.07. 14:00 13 3 19 280° W
Di, 16.07. 13:50 13 3 - 280° W
Di, 16.07. 13:40 11 2 - 280° W
Di, 16.07. 13:30 11 2 18 260° W
Di, 16.07. 13:20 11 2 - 260° W
Di, 16.07. 13:10 7 2 - 260° W
Di, 16.07. 13:00 9 2 19 250° W
Di, 16.07. 12:30 6 1 9 260° W
Di, 16.07. 12:00 7 2 14 290° W
Di, 16.07. 11:30 4 1 11 250° W
Di, 16.07. 11:00 6 1 17 280° W
Ortszeit Untergrenze Bedeckung Gattung
total tief tief mittel hoch
Di, 16.07. 14:00 1260 m 7/8 1/8 - - -
Di, 16.07. 8:00 1410 m 8/8 8/8 - - -
Di, 16.07. 2:00 3600 m 8/8 8/8 - - -
Mo, 15.07. 20:00 3600 m 3/8 3/8 - - -
Mo, 15.07. 14:00 4200 m 8/8 8/8 - - -
Mo, 15.07. 8:00 6000 m 8/8 8/8 - - -
Mo, 15.07. 2:00 3600 m 8/8 2/8 - - -
So, 14.07. 20:00 3900 m 8/8 8/8 - - -
Ortszeit Bedeckungsgrad in Achtel und Wolkenuntergrenze
Di, 16.07. 14:00 1(1260m) 7(3900m)
Di, 16.07. 13:50 1(1260m) 7(3900m)
Di, 16.07. 13:40 8
Di, 16.07. 13:30 1(1050m) 4(3600m) 7(4200m)
Di, 16.07. 13:20 1(1050m) 4(3600m) 7(4200m)
Di, 16.07. 13:10 6
Di, 16.07. 13:00 4(3600m)
Di, 16.07. 12:30 5(3000m) 8(3600m)
Di, 16.07. 12:00 2(1020m) 7(2700m) 7(3600m)
Di, 16.07. 11:30 6(2700m) 7(3000m) 8(4200m)
Di, 16.07. 11:00 1(930m) 8(3300m) 8(3900m)
Ortszeit Luftdruck NN (hPa) Tendenz (hPa in 3 Std.)
Di, 16.07. 14:00 1015 + 0,1
Di, 16.07. 8:00 1016 + 1,3
Di, 16.07. 2:00 1014 - 0,2
Mo, 15.07. 20:00 1008 - 1,2
Mo, 15.07. 14:00 1011 - 1,1
Mo, 15.07. 8:00 1014 + 0,3
Mo, 15.07. 2:00 1015 + 0,3
So, 14.07. 20:00 1013 + 0,2
Ortszeit Luftdruck NN (hPa) Tendenz (hPa in 3 Std.)
Di, 16.07. 14:00 1015 + 0,1
Di, 16.07. 13:50 1015 keine Meldung
Di, 16.07. 13:40 1015 keine Meldung
Di, 16.07. 13:30 1015 - 0,3
Di, 16.07. 13:20 1015 keine Meldung
Di, 16.07. 13:10 1015 keine Meldung
Di, 16.07. 13:00 1015 - 0,2
Di, 16.07. 12:30 1015 - 0,3
Di, 16.07. 12:00 1015 - 0,4
Di, 16.07. 11:30 1015 - 0,4
Di, 16.07. 11:00 1015 - 0,1
Ortszeit Schneehöhe (cm)
Di, 16.07. 14:00 0
Di, 16.07. 8:00 0
Di, 16.07. 2:00 0
Mo, 15.07. 20:00 0
Mo, 15.07. 14:00 0
Mo, 15.07. 8:00 0
Mo, 15.07. 2:00 0
So, 14.07. 20:00 0
Ortszeit Schneehöhe (cm)
Di, 16.07. 14:00 0
Di, 16.07. 13:50 0
Di, 16.07. 13:40 -
Di, 16.07. 13:30 0
Di, 16.07. 13:20 0
Di, 16.07. 13:10 -
Di, 16.07. 13:00 0
Di, 16.07. 12:30 0
Di, 16.07. 12:00 0
Di, 16.07. 11:30 0
Di, 16.07. 11:00 0
Link zu dieser Seite / Seite empfehlen

Das Wetter in ...